Time;durP1;ratioP1;P1;durP2;ratioP2;P2;SDS_P1;SDS_P2;PMS_P1;PMS_P2;Temp;Humidity;BMP_temperature;BMP_pressure;BME280_temperature;BME280_humidity;BME280_pressure;Samples;Min_cycle;Max_cycle;Signal;HPM_P1;HPM_P2
2023/03/30 00:01:57;;;;;;;6.20;3.80;;;;;;;9.78;100.00;100010.09;5233966;28;20032;-73
2023/03/30 00:04:33;;;;;;;7.10;3.60;;;;;;;9.68;100.00;100001.78;5246662;28;20028;-72
2023/03/30 00:07:04;;;;;;;7.00;3.80;;;;;;;9.58;100.00;99997.03;5254606;28;20028;-72
2023/03/30 00:09:41;;;;;;;7.63;3.53;;;;;;;9.39;100.00;99989.13;5252626;28;20082;-72
2023/03/30 00:12:14;;;;;;;6.20;3.65;;;;;;;9.49;100.00;99992.19;5233109;28;20035;-72
2023/03/30 00:14:44;;;;;;;8.07;3.58;;;;;;;9.27;100.00;99996.53;5253916;28;20082;-74
2023/03/30 00:17:15;;;;;;;6.13;3.83;;;;;;;9.33;100.00;99986.72;5256752;28;20032;-71
2023/03/30 00:19:45;;;;;;;6.55;3.60;;;;;;;9.28;100.00;99985.25;5247278;28;20446;-72
2023/03/30 00:22:15;;;;;;;7.35;3.42;;;;;;;9.16;100.00;99981.34;5251180;28;20024;-73
2023/03/30 00:24:46;;;;;;;6.30;3.65;;;;;;;9.09;100.00;99979.03;5338442;22;20037;-72
2023/03/30 00:27:16;;;;;;;7.05;3.88;;;;;;;9.08;100.00;99972.13;5215119;28;20449;-73
2023/03/30 00:29:47;;;;;;;6.25;3.92;;;;;;;9.17;100.00;99979.59;5211873;28;20411;-69
2023/03/30 00:32:17;;;;;;;10.77;3.85;;;;;;;9.22;100.00;99983.72;5211376;28;20025;-71
2023/03/30 00:34:47;;;;;;;7.55;3.78;;;;;;;9.26;100.00;99974.00;5209402;28;20183;-71
2023/03/30 00:37:18;;;;;;;6.55;4.00;;;;;;;9.26;100.00;99976.59;5202651;28;20483;-71
2023/03/30 00:39:48;;;;;;;6.07;3.85;;;;;;;9.12;100.00;99967.63;5201785;28;20033;-71
2023/03/30 00:42:20;;;;;;;6.25;3.67;;;;;;;9.23;100.00;99958.47;5203428;28;20049;-71
2023/03/30 00:45:08;;;;;;;7.72;4.03;;;;;;;9.15;100.00;99952.75;5201310;28;20499;-71
2023/03/30 00:47:45;;;;;;;8.85;4.20;;;;;;;9.27;100.00;99942.66;5190112;28;20021;-73
2023/03/30 00:50:20;;;;;;;8.45;3.72;;;;;;;9.33;100.00;99934.56;5201938;28;20053;-71
2023/03/30 00:52:54;;;;;;;7.43;3.97;;;;;;;9.31;100.00;99935.56;5201338;28;20034;-71
2023/03/30 00:55:27;;;;;;;7.13;4.40;;;;;;;9.14;100.00;99927.59;5198552;28;20041;-71
2023/03/30 00:57:59;;;;;;;8.25;4.05;;;;;;;9.13;100.00;99938.91;5198126;28;20530;-71
2023/03/30 01:18:31;;;;;;;8.88;4.38;;;;;;;9.10;100.00;99886.06;5194993;28;20132;-70
2023/03/30 01:21:22;;;;;;;7.88;4.38;;;;;;;9.06;100.00;99887.94;5178734;28;20114;-71
2023/03/30 01:24:16;;;;;;;8.43;4.32;;;;;;;9.03;100.00;99882.00;5205770;28;20025;-71
2023/03/30 01:26:54;;;;;;;6.38;4.07;;;;;;;8.94;100.00;99875.41;5191103;28;20502;-71
2023/03/30 01:29:43;;;;;;;8.57;4.55;;;;;;;8.89;100.00;99882.53;5195886;28;20396;-70
2023/03/30 01:32:25;;;;;;;12.20;5.15;;;;;;;8.99;100.00;99880.41;5193691;28;20087;-71
2023/03/30 01:35:15;;;;;;;8.55;4.60;;;;;;;8.91;100.00;99872.91;5199032;28;20032;-71
2023/03/30 01:38:10;;;;;;;8.30;4.35;;;;;;;8.93;100.00;99878.91;5194590;28;20033;-71
2023/03/30 01:41:15;;;;;;;10.45;4.80;;;;;;;9.01;100.00;99879.47;5190601;28;20098;-71
2023/03/30 01:44:01;;;;;;;9.10;5.15;;;;;;;8.95;100.00;99865.81;5189840;28;20103;-71
2023/03/30 01:46:39;;;;;;;10.15;5.20;;;;;;;8.97;100.00;99864.88;5200670;28;20032;-71
2023/03/30 01:49:25;;;;;;;11.50;5.28;;;;;;;8.98;100.00;99856.13;5189627;28;20487;-70
2023/03/30 01:51:55;;;;;;;9.77;4.55;;;;;;;8.95;100.00;99858.88;5199867;28;20029;-71
2023/03/30 01:54:31;;;;;;;9.18;4.93;;;;;;;9.02;100.00;99854.22;5195110;28;20070;-71
2023/03/30 01:57:15;;;;;;;10.50;4.93;;;;;;;8.97;100.00;99851.84;5190769;28;20037;-71
2023/03/30 02:00:00;;;;;;;12.60;4.90;;;;;;;8.94;100.00;99846.75;5193828;28;20025;-71
2023/03/30 02:02:31;;;;;;;8.35;4.57;;;;;;;8.91;100.00;99840.81;5200318;28;20029;-70
2023/03/30 02:05:04;;;;;;;10.68;5.28;;;;;;;9.01;100.00;99845.56;5199595;28;20026;-71
2023/03/30 02:07:37;;;;;;;8.50;5.13;;;;;;;8.98;100.00;99844.84;5198437;28;20474;-71
2023/03/30 02:10:09;;;;;;;9.60;4.55;;;;;;;8.92;100.00;99827.69;5189994;28;20060;-70
2023/03/30 02:12:40;;;;;;;8.60;5.13;;;;;;;8.83;100.00;99830.69;5198256;28;20021;-70
2023/03/30 02:15:14;;;;;;;8.52;5.00;;;;;;;8.82;100.00;99829.00;5198664;28;20497;-70
2023/03/30 02:17:46;;;;;;;9.02;5.00;;;;;;;8.81;100.00;99816.88;5196551;28;20414;-70
2023/03/30 02:20:17;;;;;;;9.18;4.63;;;;;;;8.76;100.00;99811.00;5189354;28;20032;-71
2023/03/30 02:22:48;;;;;;;9.75;5.13;;;;;;;8.74;100.00;99804.16;5193131;28;20071;-72
2023/03/30 02:25:19;;;;;;;7.43;4.50;;;;;;;8.67;100.00;99800.97;5197554;28;20032;-71
2023/03/30 02:27:50;;;;;;;11.73;4.90;;;;;;;8.69;100.00;99806.94;5197475;28;20018;-71
2023/03/30 02:30:20;;;;;;;9.13;4.72;;;;;;;8.66;100.00;99801.88;5199501;28;20036;-72
2023/03/30 02:32:53;;;;;;;7.60;4.15;;;;;;;8.66;100.00;99796.66;5198939;28;20112;-71
2023/03/30 02:35:51;;;;;;;7.22;4.00;;;;;;;8.66;100.00;99790.59;5198745;28;20030;-71
2023/03/30 02:38:50;;;;;;;10.55;4.38;;;;;;;8.64;100.00;99787.22;5195618;28;20025;-72
2023/03/30 02:41:27;;;;;;;8.75;4.18;;;;;;;8.59;100.00;99803.00;5191805;28;20038;-72
2023/03/30 02:44:14;;;;;;;8.23;4.88;;;;;;;8.53;100.00;99795.44;5199994;28;20103;-71
2023/03/30 02:47:14;;;;;;;8.13;4.70;;;;;;;8.57;100.00;99802.22;5198975;28;20024;-71
2023/03/30 02:49:53;;;;;;;6.47;4.15;;;;;;;8.59;100.00;99789.16;5193460;28;20036;-72
2023/03/30 02:52:51;;;;;;;8.68;4.50;;;;;;;8.58;100.00;99793.50;5192311;28;20034;-71
2023/03/30 02:55:33;;;;;;;8.50;4.65;;;;;;;8.60;100.00;99780.44;5194955;28;20124;-73
2023/03/30 02:58:29;;;;;;;9.00;5.00;;;;;;;8.63;100.00;99775.97;5197821;28;20159;-72
2023/03/30 03:01:07;;;;;;;10.18;5.03;;;;;;;8.68;100.00;99771.41;5198196;28;20096;-71
2023/03/30 03:03:42;;;;;;;12.10;5.05;;;;;;;8.71;100.00;99768.66;5189483;28;20112;-71
2023/03/30 03:06:14;;;;;;;10.35;4.57;;;;;;;8.73;100.00;99760.81;5198085;28;20025;-72
2023/03/30 03:08:46;;;;;;;8.38;4.55;;;;;;;8.74;100.00;99754.69;5199599;28;20029;-72
2023/03/30 03:11:17;;;;;;;10.38;5.13;;;;;;;8.70;100.00;99738.31;5193667;28;20453;-71
2023/03/30 03:13:47;;;;;;;9.40;4.78;;;;;;;8.64;100.00;99740.31;5199064;28;20116;-71
2023/03/30 03:16:18;;;;;;;9.02;4.80;;;;;;;8.61;100.00;99725.69;5199912;28;20018;-72
2023/03/30 03:18:48;;;;;;;8.45;4.47;;;;;;;8.61;100.00;99727.44;5198765;28;20555;-72
2023/03/30 03:21:18;;;;;;;9.20;4.88;;;;;;;8.57;100.00;99724.09;5199412;28;20033;-71
2023/03/30 03:23:49;;;;;;;8.20;4.90;;;;;;;8.66;100.00;99722.88;5198024;28;20470;-72
2023/03/30 03:26:20;;;;;;;9.98;4.85;;;;;;;8.72;100.00;99715.66;5197830;28;20021;-72
2023/03/30 03:28:50;;;;;;;9.95;5.20;;;;;;;8.77;100.00;99715.47;5197144;28;20033;-72
2023/03/30 03:31:23;;;;;;;9.18;5.00;;;;;;;8.81;100.00;99707.47;5197559;28;20035;-72
2023/03/30 03:33:53;;;;;;;9.40;4.50;;;;;;;8.84;100.00;99711.69;5198153;28;20487;-71
2023/03/30 03:36:23;;;;;;;9.52;4.72;;;;;;;8.87;100.00;99694.19;5198696;28;20079;-71
2023/03/30 03:38:54;;;;;;;8.48;4.78;;;;;;;8.87;100.00;99714.19;5199082;28;20368;-72
2023/03/30 03:41:25;;;;;;;10.32;5.00;;;;;;;8.97;100.00;99700.69;5195215;28;20029;-71
2023/03/30 03:43:55;;;;;;;8.02;4.90;;;;;;;9.01;100.00;99698.78;5199197;28;20056;-71
2023/03/30 03:46:25;;;;;;;8.70;5.07;;;;;;;9.00;100.00;99694.47;5199491;28;20065;-71
2023/03/30 03:48:55;;;;;;;8.10;4.13;;;;;;;9.07;100.00;99701.16;5189774;28;20322;-70
2023/03/30 03:51:28;;;;;;;8.43;4.70;;;;;;;9.12;100.00;99691.34;5196475;28;20037;-70
2023/03/30 03:53:59;;;;;;;8.23;4.43;;;;;;;9.12;100.00;99684.41;5197247;28;20022;-72
2023/03/30 03:56:30;;;;;;;7.40;4.32;;;;;;;9.14;100.00;99686.00;5198825;28;20056;-73
2023/03/30 03:59:02;;;;;;;8.40;4.28;;;;;;;9.23;100.00;99687.34;5197242;28;20017;-71
2023/03/30 04:01:32;;;;;;;8.63;4.70;;;;;;;9.24;100.00;99694.25;5198828;28;20026;-71
2023/03/30 04:04:02;;;;;;;7.75;4.50;;;;;;;9.22;100.00;99678.72;5198116;28;20036;-72
2023/03/30 04:06:33;;;;;;;8.07;4.00;;;;;;;9.18;100.00;99678.91;5193122;28;20155;-71
2023/03/30 04:09:03;;;;;;;13.57;5.55;;;;;;;9.23;100.00;99669.13;5199058;28;20029;-71
2023/03/30 04:11:33;;;;;;;8.55;4.55;;;;;;;9.29;100.00;99674.06;5197699;28;20029;-71
2023/03/30 04:14:04;;;;;;;9.55;4.35;;;;;;;9.21;100.00;99683.97;5199594;28;20558;-71
2023/03/30 04:16:34;;;;;;;7.18;4.32;;;;;;;9.24;100.00;99678.63;5200144;28;20072;-72
2023/03/30 04:19:04;;;;;;;10.50;3.80;;;;;;;9.29;100.00;99674.06;5199459;28;20475;-72
2023/03/30 04:21:34;;;;;;;12.05;4.35;;;;;;;9.28;100.00;99667.16;5198606;28;20160;-72
2023/03/30 04:24:06;;;;;;;7.90;4.43;;;;;;;9.27;100.00;99661.09;5196914;28;20028;-73
2023/03/30 04:26:36;;;;;;;8.23;4.20;;;;;;;9.21;100.00;99660.50;5206982;28;20123;-72
2023/03/30 04:29:07;;;;;;;9.02;4.05;;;;;;;9.24;100.00;99661.25;5197935;28;20451;-72
2023/03/30 04:31:40;;;;;;;8.75;4.60;;;;;;;9.22;100.00;99650.03;5199213;28;20037;-72
2023/03/30 04:34:15;;;;;;;7.88;4.43;;;;;;;9.17;100.00;99643.34;5199167;28;20087;-72
2023/03/30 04:36:46;;;;;;;8.75;4.07;;;;;;;9.17;100.00;99644.16;5199939;28;20061;-72
2023/03/30 04:39:17;;;;;;;6.00;3.63;;;;;;;9.09;100.00;99640.19;5197814;28;20029;-72
2023/03/30 04:41:47;;;;;;;7.40;3.97;;;;;;;9.17;100.00;99638.13;5197381;28;20423;-73
2023/03/30 04:44:19;;;;;;;9.18;4.32;;;;;;;9.10;100.00;99641.06;5198522;28;20147;-72
2023/03/30 04:46:49;;;;;;;6.40;3.75;;;;;;;9.14;100.00;99627.84;5195499;28;20320;-71
2023/03/30 04:49:20;;;;;;;7.43;3.92;;;;;;;9.10;100.00;99630.63;5200025;28;20032;-72
2023/03/30 04:51:51;;;;;;;8.15;3.80;;;;;;;9.05;100.00;99623.03;5200729;28;20033;-71
2023/03/30 04:54:22;;;;;;;7.43;3.88;;;;;;;9.03;100.00;99613.59;5200851;28;20030;-71
2023/03/30 04:56:52;;;;;;;5.55;3.45;;;;;;;9.03;100.00;99600.56;5201767;28;20037;-71
2023/03/30 04:59:22;;;;;;;5.43;3.30;;;;;;;9.13;100.00;99612.25;5201526;28;20094;-71
2023/03/30 05:01:52;;;;;;;6.78;3.90;;;;;;;9.28;100.00;99617.63;5201458;28;20116;-71
2023/03/30 05:04:23;;;;;;;6.57;3.55;;;;;;;9.40;100.00;99617.06;5201117;28;20033;-71
2023/03/30 05:06:54;;;;;;;7.43;3.38;;;;;;;9.39;100.00;99617.97;5202276;28;20071;-71
2023/03/30 05:09:24;;;;;;;4.72;2.80;;;;;;;9.45;100.00;99613.31;5202255;28;20495;-72
2023/03/30 05:11:55;;;;;;;5.57;2.92;;;;;;;9.37;100.00;99615.44;5200735;28;20485;-71
2023/03/30 05:14:25;;;;;;;5.53;3.03;;;;;;;9.39;100.00;99607.53;5201639;28;20036;-72
2023/03/30 05:16:57;;;;;;;8.23;3.03;;;;;;;9.40;100.00;99615.31;5201707;28;20132;-71
2023/03/30 05:19:28;;;;;;;7.00;3.22;;;;;;;9.37;100.00;99617.19;5201749;28;20101;-71
2023/03/30 05:21:59;;;;;;;4.97;2.85;;;;;;;9.51;100.00;99617.41;5201019;28;20033;-71
2023/03/30 05:24:29;;;;;;;7.00;3.33;;;;;;;9.51;100.00;99622.63;5196633;28;21445;-71
2023/03/30 05:27:01;;;;;;;5.68;2.67;;;;;;;9.72;100.00;99624.22;5199793;28;20026;-71
2023/03/30 05:29:31;;;;;;;5.15;2.47;;;;;;;9.82;100.00;99623.72;5198051;28;20033;-72
2023/03/30 05:32:01;;;;;;;5.30;2.78;;;;;;;9.85;100.00;99620.13;5199475;28;20017;-72
2023/03/30 05:34:32;;;;;;;6.72;2.70;;;;;;;9.90;100.00;99613.78;5199054;28;20029;-71
2023/03/30 05:37:02;;;;;;;5.43;2.72;;;;;;;9.90;100.00;99615.53;5181966;28;20566;-71
2023/03/30 05:39:32;;;;;;;10.32;2.85;;;;;;;9.98;100.00;99613.41;5182975;28;20105;-72
2023/03/30 05:42:03;;;;;;;4.45;2.50;;;;;;;10.09;100.00;99606.78;5183286;28;20036;-72
2023/03/30 05:44:33;;;;;;;4.13;2.42;;;;;;;10.06;100.00;99600.84;5199660;28;20021;-71
2023/03/30 05:47:03;;;;;;;5.80;2.60;;;;;;;10.20;100.00;99598.41;5195685;28;20404;-72
2023/03/30 05:49:34;;;;;;;4.20;2.53;;;;;;;10.22;100.00;99593.94;5195313;28;20403;-72
2023/03/30 05:52:04;;;;;;;6.43;2.80;;;;;;;10.25;100.00;99597.25;5200526;28;20491;-71
2023/03/30 05:54:34;;;;;;;6.20;2.35;;;;;;;10.27;100.00;99595.41;5198240;28;20053;-72
2023/03/30 05:57:05;;;;;;;5.50;2.45;;;;;;;10.20;100.00;99601.84;5200427;28;20033;-72
2023/03/30 05:59:36;;;;;;;8.25;2.58;;;;;;;10.21;100.00;99592.25;5199600;28;20026;-72
2023/03/30 06:02:07;;;;;;;3.85;2.15;;;;;;;10.18;100.00;99595.84;5198265;28;20034;-71
2023/03/30 06:04:38;;;;;;;3.15;1.90;;;;;;;10.27;100.00;99589.34;5194120;28;20487;-72
2023/03/30 06:07:09;;;;;;;5.35;2.28;;;;;;;10.37;100.00;99591.41;5201159;28;20021;-72
2023/03/30 06:09:41;;;;;;;6.15;2.35;;;;;;;10.43;100.00;99592.88;5200787;28;20088;-72
2023/03/30 06:12:11;;;;;;;8.43;2.60;;;;;;;10.46;100.00;99590.94;5198977;28;20091;-72
2023/03/30 06:14:41;;;;;;;4.75;2.10;;;;;;;10.48;100.00;99598.72;5200602;28;20021;-71
2023/03/30 06:17:14;;;;;;;4.03;1.98;;;;;;;10.62;100.00;99599.69;5200848;28;20079;-70
2023/03/30 06:19:44;;;;;;;5.57;1.52;;;;;;;10.64;100.00;99602.22;5199822;28;20029;-72
2023/03/30 06:22:15;;;;;;;4.35;1.30;;;;;;;10.90;100.00;99594.75;5199599;28;20064;-72
2023/03/30 06:27:19;;;;;;;10.65;1.63;;;;;;;11.38;100.00;99590.34;5233433;23;20136;-71
2023/03/30 06:29:49;;;;;;;6.85;1.40;;;;;;;11.56;100.00;99594.59;5230350;28;20104;-71
2023/03/30 06:32:20;;;;;;;4.72;1.15;;;;;;;11.81;100.00;99596.69;5228458;28;20059;-72
2023/03/30 06:34:51;;;;;;;4.90;1.50;;;;;;;11.90;100.00;99578.69;5228521;28;20046;-71
2023/03/30 06:37:22;;;;;;;3.55;1.58;;;;;;;12.09;100.00;99576.72;5226183;28;20037;-73
2023/03/30 06:39:52;;;;;;;3.50;1.17;;;;;;;12.18;100.00;99564.88;5224566;28;20052;-75
2023/03/30 06:42:26;;;;;;;4.85;1.00;;;;;;;12.32;100.00;99564.91;5226407;28;20140;-72
2023/03/30 06:44:56;;;;;;;6.65;1.55;;;;;;;12.53;100.00;99558.38;5230273;28;20125;-72
2023/03/30 06:47:26;;;;;;;3.88;1.00;;;;;;;12.76;100.00;99553.47;5233662;28;20046;-72
2023/03/30 06:49:57;;;;;;;3.00;1.27;;;;;;;12.82;100.00;99544.38;5231033;28;20028;-72
2023/03/30 06:52:27;;;;;;;3.40;1.20;;;;;;;13.09;100.00;99564.53;5231450;28;20103;-72
2023/03/30 06:54:57;;;;;;;3.78;1.15;;;;;;;13.15;99.76;99553.66;5227684;28;20032;-72
2023/03/30 06:57:27;;;;;;;5.03;1.30;;;;;;;13.28;97.13;99554.59;5226970;28;20026;-72
2023/03/30 06:59:58;;;;;;;4.15;1.20;;;;;;;13.25;96.88;99555.59;5226250;28;20519;-72
2023/03/30 07:02:28;;;;;;;9.98;1.58;;;;;;;13.28;97.01;99544.09;5226216;28;20048;-72
2023/03/30 07:04:59;;;;;;;6.47;1.30;;;;;;;13.33;96.45;99536.75;5225547;28;20148;-73
2023/03/30 07:07:30;;;;;;;4.90;0.95;;;;;;;13.33;97.54;99534.13;5226453;28;20489;-70
2023/03/30 07:10:06;;;;;;;3.53;1.23;;;;;;;13.60;97.33;99541.09;5227739;28;20488;-70
2023/03/30 07:12:37;;;;;;;3.17;0.90;;;;;;;13.93;96.10;99540.72;5232616;28;20123;-72
2023/03/30 07:15:08;;;;;;;6.55;1.77;;;;;;;14.53;92.92;99548.00;5216444;28;20182;-72
2023/03/30 07:17:39;;;;;;;3.20;1.30;;;;;;;14.87;89.97;99542.94;5231272;28;20029;-73
2023/03/30 07:20:13;;;;;;;2.88;1.00;;;;;;;15.38;88.01;99546.38;5229787;28;20150;-72
2023/03/30 07:22:44;;;;;;;4.82;1.48;;;;;;;15.51;87.25;99555.09;5229778;28;20387;-73
2023/03/30 07:25:14;;;;;;;4.68;1.38;;;;;;;15.10;86.22;99558.00;5233401;28;20021;-73
2023/03/30 07:27:44;;;;;;;4.80;1.73;;;;;;;15.00;87.90;99564.81;5231792;28;20126;-73
2023/03/30 07:30:15;;;;;;;4.53;1.25;;;;;;;14.78;87.29;99555.06;5221802;28;20048;-74
2023/03/30 07:32:45;;;;;;;6.80;1.65;;;;;;;14.81;87.28;99560.97;5224866;28;20025;-73
2023/03/30 07:35:15;;;;;;;5.45;1.48;;;;;;;14.82;87.45;99557.38;5221200;28;20028;-73
2023/03/30 07:37:46;;;;;;;6.18;1.30;;;;;;;14.90;86.65;99563.81;5233072;28;20036;-73
2023/03/30 07:40:17;;;;;;;4.60;1.17;;;;;;;14.97;87.12;99557.16;5230056;28;20060;-73
2023/03/30 07:42:49;;;;;;;3.03;1.25;;;;;;;15.22;85.50;99561.53;5229080;28;20037;-72
2023/03/30 07:45:19;;;;;;;4.95;1.08;;;;;;;15.26;84.19;99555.97;5231326;28;20016;-73
2023/03/30 07:47:50;;;;;;;3.45;1.30;;;;;;;15.15;84.14;99561.13;5226691;28;20047;-73
2023/03/30 07:50:20;;;;;;;6.75;1.50;;;;;;;15.12;84.74;99566.63;5227566;28;20482;-73
2023/03/30 07:52:51;;;;;;;7.18;1.27;;;;;;;15.12;84.69;99573.66;5229842;28;20044;-73
2023/03/30 07:55:21;;;;;;;3.58;1.02;;;;;;;15.10;84.90;99573.78;5225944;28;20043;-73
2023/03/30 07:57:51;;;;;;;3.47;1.30;;;;;;;15.03;85.95;99564.63;5226974;28;20033;-73
2023/03/30 08:00:22;;;;;;;5.18;1.13;;;;;;;15.03;85.75;99556.72;5231356;28;20093;-73
2023/03/30 08:02:53;;;;;;;3.85;1.20;;;;;;;15.02;86.75;99556.84;5226270;28;20056;-74
2023/03/30 08:05:23;;;;;;;5.07;1.52;;;;;;;15.11;86.22;99543.88;5230340;28;21050;-73
2023/03/30 08:07:53;;;;;;;4.10;1.70;;;;;;;15.20;85.45;99553.75;5229985;28;20062;-73
2023/03/30 08:10:23;;;;;;;7.45;1.52;;;;;;;15.37;85.35;99553.44;5230256;28;20278;-73
2023/03/30 08:12:54;;;;;;;3.67;1.30;;;;;;;15.47;86.92;99553.59;5230338;28;20113;-72
2023/03/30 08:15:25;;;;;;;6.78;1.38;;;;;;;15.44;84.15;99562.59;5228825;28;20056;-72
2023/03/30 08:17:56;;;;;;;4.75;1.48;;;;;;;15.54;84.96;99558.31;5234439;28;20053;-72
2023/03/30 08:20:26;;;;;;;7.68;1.40;;;;;;;15.62;83.99;99570.94;5234733;28;20520;-73
2023/03/30 08:22:56;;;;;;;7.63;1.60;;;;;;;15.73;82.61;99566.56;5234442;28;20375;-73
2023/03/30 08:25:27;;;;;;;5.18;1.40;;;;;;;15.74;83.06;99576.16;5230015;28;20024;-73
2023/03/30 08:27:57;;;;;;;5.50;1.55;;;;;;;15.77;84.30;99581.25;5225480;28;20043;-73
2023/03/30 08:30:28;;;;;;;5.28;1.48;;;;;;;16.03;84.02;99576.69;5225288;28;20040;-73
2023/03/30 08:32:58;;;;;;;3.53;1.30;;;;;;;16.21;82.77;99586.72;5226157;28;20048;-73
2023/03/30 08:35:28;;;;;;;4.60;1.30;;;;;;;16.40;82.27;99587.06;5223148;28;20079;-73
2023/03/30 08:37:59;;;;;;;5.93;1.40;;;;;;;17.52;81.58;99580.03;5226004;28;20415;-72
2023/03/30 08:40:30;;;;;;;5.65;1.45;;;;;;;18.11;78.54;99581.31;5226074;28;20029;-72
2023/03/30 08:43:15;;;;;;;6.18;1.33;;;;;;;18.34;76.93;99575.00;5226385;28;20078;-73
2023/03/30 08:45:46;;;;;;;5.15;1.35;;;;;;;18.95;74.56;99573.19;5226023;28;20154;-72
2023/03/30 08:48:20;;;;;;;6.32;1.55;;;;;;;19.53;73.62;99564.56;5227236;28;20511;-73
2023/03/30 08:50:58;;;;;;;8.10;2.03;;;;;;;19.02;75.98;99569.06;5227507;28;20230;-72
2023/03/30 08:53:32;;;;;;;4.72;1.38;;;;;;;18.90;74.82;99564.81;5224964;28;20066;-72
2023/03/30 08:56:17;;;;;;;7.70;1.50;;;;;;;19.25;75.22;99554.69;5227133;28;20108;-72
2023/03/30 08:58:55;;;;;;;4.97;1.30;;;;;;;19.18;75.02;99558.84;5224749;28;20024;-72
2023/03/30 09:01:53;;;;;;;4.82;1.42;;;;;;;18.95;75.63;99554.66;5223182;28;20037;-72
2023/03/30 09:04:48;;;;;;;3.30;1.23;;;;;;;18.65;77.09;99556.44;5222722;28;20108;-72
2023/03/30 09:07:31;;;;;;;3.65;1.20;;;;;;;18.29;77.28;99561.31;5225608;28;20616;-72
2023/03/30 09:10:03;;;;;;;5.15;1.60;;;;;;;18.06;77.45;99567.63;5222754;28;20075;-70
2023/03/30 09:12:33;;;;;;;6.10;1.60;;;;;;;17.73;79.92;99575.66;5222880;28;20140;-72
2023/03/30 09:15:12;;;;;;;7.27;1.60;;;;;;;17.70;82.09;99568.84;5220608;28;20029;-72
2023/03/30 09:17:54;;;;;;;6.88;1.23;;;;;;;17.85;79.97;99558.81;5224421;28;20112;-73
2023/03/30 09:20:28;;;;;;;5.90;1.35;;;;;;;18.27;77.22;99563.22;5226868;28;20120;-72
2023/03/30 09:23:01;;;;;;;5.65;1.55;;;;;;;19.59;75.13;99557.88;5229741;28;20031;-73
2023/03/30 09:25:34;;;;;;;4.72;1.23;;;;;;;20.87;70.66;99545.09;5223673;28;20029;-71
2023/03/30 09:28:32;;;;;;;2.95;1.20;;;;;;;21.30;69.55;99540.88;5222210;28;20036;-72
2023/03/30 09:31:18;;;;;;;5.70;1.58;;;;;;;20.95;69.59;99540.72;5226277;28;20021;-72
2023/03/30 09:34:30;;;;;;;6.20;1.60;;;;;;;19.88;71.52;99545.50;5226524;28;20025;-72
2023/03/30 09:37:17;;;;;;;5.03;1.85;;;;;;;19.36;73.69;99548.44;5209545;28;20036;-72
2023/03/30 09:39:49;;;;;;;4.82;1.33;;;;;;;19.14;73.89;99540.66;5225542;28;20029;-73
2023/03/30 09:42:28;;;;;;;6.05;2.17;;;;;;;19.34;74.29;99543.31;5227457;28;20031;-73
2023/03/30 09:45:14;;;;;;;4.35;1.52;;;;;;;19.46;72.93;99546.69;5231688;28;20509;-73
2023/03/30 09:47:45;;;;;;;5.43;1.40;;;;;;;18.77;74.02;99556.22;5227272;28;20059;-72
2023/03/30 09:50:20;;;;;;;5.80;1.42;;;;;;;18.50;74.25;99554.25;5225985;28;20513;-73
2023/03/30 09:52:56;;;;;;;6.03;1.80;;;;;;;18.38;75.41;99549.97;5230308;28;20463;-72
2023/03/30 09:55:30;;;;;;;8.68;2.25;;;;;;;18.49;76.65;99550.75;5226432;28;20029;-72
2023/03/30 09:58:13;;;;;;;6.43;1.75;;;;;;;18.45;76.46;99544.03;5223549;28;20052;-72
2023/03/30 10:00:44;;;;;;;5.28;1.60;;;;;;;18.44;78.48;99537.06;5221656;28;20036;-72
2023/03/30 10:03:21;;;;;;;5.20;1.50;;;;;;;18.22;77.30;99533.66;5223332;28;20024;-72
2023/03/30 10:06:22;;;;;;;4.45;1.67;;;;;;;18.08;77.21;99537.47;5222106;28;20184;-72
2023/03/30 10:08:55;;;;;;;4.65;1.50;;;;;;;18.01;78.47;99530.97;5216795;28;20493;-72
2023/03/30 10:11:40;;;;;;;5.75;1.70;;;;;;;17.97;80.49;99529.56;5221222;28;20033;-71
2023/03/30 10:14:24;;;;;;;6.40;1.75;;;;;;;17.79;77.71;99522.31;5226188;28;20032;-72
2023/03/30 10:16:57;;;;;;;8.10;2.30;;;;;;;17.82;79.55;99516.78;5228515;28;20016;-73
2023/03/30 10:19:27;;;;;;;6.70;1.73;;;;;;;17.91;79.50;99523.94;5227315;28;20036;-72
2023/03/30 10:22:03;;;;;;;6.50;1.60;;;;;;;17.66;77.63;99521.63;5225930;28;20378;-72
2023/03/30 10:24:35;;;;;;;6.22;1.80;;;;;;;17.71;77.87;99517.66;5232232;28;20028;-72
2023/03/30 10:27:12;;;;;;;5.93;2.03;;;;;;;17.56;77.89;99523.31;5221601;28;20033;-73
2023/03/30 10:29:49;;;;;;;6.35;1.80;;;;;;;17.43;77.85;99518.19;5214476;28;20048;-72
2023/03/30 10:32:25;;;;;;;4.78;1.85;;;;;;;17.19;78.98;99522.78;5222092;28;20037;-72
2023/03/30 10:35:00;;;;;;;5.40;2.13;;;;;;;17.11;79.59;99517.22;5228507;28;20020;-72
2023/03/30 10:37:35;;;;;;;10.17;2.63;;;;;;;17.17;78.81;99518.56;5230223;28;20609;-72
2023/03/30 10:40:31;;;;;;;8.50;2.65;;;;;;;17.09;81.64;99518.31;5227789;28;20282;-72
2023/03/30 10:43:03;;;;;;;6.32;2.35;;;;;;;17.04;81.40;99515.19;5228558;28;20281;-72
2023/03/30 10:45:43;;;;;;;11.60;3.65;;;;;;;17.19;82.14;99504.28;5227188;28;20025;-71
2023/03/30 10:48:38;;;;;;;7.93;2.40;;;;;;;17.35;80.92;99494.19;5224789;28;20029;-72
2023/03/30 10:51:26;;;;;;;5.78;1.92;;;;;;;17.43;80.54;99491.78;5223066;28;20047;-72
2023/03/30 10:54:12;;;;;;;6.78;2.58;;;;;;;17.95;81.06;99493.63;5228061;28;20060;-72
2023/03/30 10:56:46;;;;;;;5.18;2.03;;;;;;;18.19;82.45;99486.31;5225260;28;20025;-72
2023/03/30 10:59:32;;;;;;;5.47;1.77;;;;;;;18.45;81.18;99492.91;5226636;28;20129;-73
2023/03/30 11:02:21;;;;;;;12.25;2.20;;;;;;;18.48;78.59;99497.97;5222782;28;20409;-72
2023/03/30 11:05:03;;;;;;;6.97;2.10;;;;;;;18.35;78.40;99500.78;5223643;28;20037;-72
2023/03/30 11:07:56;;;;;;;6.43;1.88;;;;;;;18.09;79.70;99506.56;5225696;28;20017;-72
2023/03/30 11:10:37;;;;;;;6.03;1.70;;;;;;;17.82;79.69;99503.56;5229125;28;20495;-72
2023/03/30 11:13:18;;;;;;;6.65;1.63;;;;;;;17.77;80.54;99492.50;5220726;28;20063;-72
2023/03/30 11:15:54;;;;;;;5.05;1.92;;;;;;;17.59;80.66;99517.78;5229623;28;20367;-72
2023/03/30 11:18:42;;;;;;;6.32;2.17;;;;;;;17.16;88.22;99524.81;5228522;28;20182;-72
2023/03/30 11:21:49;;;;;;;5.15;1.42;;;;;;;16.61;94.11;99527.41;5226141;28;20058;-73
2023/03/30 11:24:21;;;;;;;6.72;2.40;;;;;;;15.90;94.81;99560.91;5223850;28;20029;-72
2023/03/30 11:27:08;;;;;;;7.45;1.88;;;;;;;15.79;97.91;99554.75;5227311;28;20052;-72
2023/03/30 11:30:09;;;;;;;4.45;1.65;;;;;;;15.53;99.25;99537.38;5218242;28;20543;-71
2023/03/30 11:33:01;;;;;;;2.38;1.15;;;;;;;15.54;96.83;99542.53;5217252;28;20391;-70
2023/03/30 11:35:45;;;;;;;6.03;1.55;;;;;;;15.40;98.64;99576.91;5219680;28;20546;-71
2023/03/30 11:38:25;;;;;;;5.10;1.98;;;;;;;14.97;98.58;99582.59;5226355;28;20029;-71
2023/03/30 11:41:03;;;;;;;3.67;1.30;;;;;;;14.93;100.00;99591.66;5228704;28;20027;-70
2023/03/30 11:43:33;;;;;;;3.58;1.30;;;;;;;14.62;100.00;99601.75;5224946;28;20168;-70
2023/03/30 11:46:18;;;;;;;2.45;1.10;;;;;;;14.22;100.00;99602.75;5225626;28;20490;-70
2023/03/30 11:49:12;;;;;;;2.90;1.00;;;;;;;14.14;100.00;99597.94;5220647;28;20025;-71
2023/03/30 11:52:03;;;;;;;2.42;1.10;;;;;;;14.09;100.00;99586.06;5223461;28;20066;-72
2023/03/30 11:55:16;;;;;;;3.22;1.10;;;;;;;13.95;100.00;99583.47;5225768;28;20036;-70
2023/03/30 11:57:57;;;;;;;2.47;0.68;;;;;;;14.01;99.88;99580.44;5226797;28;20032;-71
2023/03/30 12:00:46;;;;;;;2.17;0.73;;;;;;;14.12;100.00;99596.34;5222319;28;20036;-71
2023/03/30 12:03:40;;;;;;;3.97;1.10;;;;;;;14.14;97.54;99597.94;5223241;28;20017;-71
2023/03/30 12:06:23;;;;;;;3.60;0.80;;;;;;;14.18;96.73;99591.56;5220652;28;20033;-72
2023/03/30 12:09:08;;;;;;;2.72;0.60;;;;;;;14.53;92.19;99586.59;5224351;28;20445;-72
2023/03/30 12:11:48;;;;;;;3.10;0.73;;;;;;;14.71;92.93;99590.59;5223867;28;20036;-72
2023/03/30 12:14:52;;;;;;;3.65;0.90;;;;;;;14.83;90.91;99580.94;5222840;28;20367;-72
2023/03/30 12:17:24;;;;;;;3.35;0.70;;;;;;;14.93;90.61;99584.63;5174056;28;20040;-72
2023/03/30 12:20:04;;;;;;;1.85;0.60;;;;;;;15.04;90.74;99592.59;5225145;28;20271;-72
2023/03/30 12:22:48;;;;;;;5.55;0.73;;;;;;;14.96;90.41;99578.31;5227005;28;20032;-71
2023/03/30 12:27:57;;;;;;;3.40;0.77;;;;;;;14.74;91.27;99569.38;5173690;28;20037;-72
2023/03/30 12:30:40;;;;;;;2.10;0.80;;;;;;;14.85;90.74;99573.78;5160514;28;20099;-71
2023/03/30 12:33:17;;;;;;;2.55;0.60;;;;;;;14.77;89.58;99571.78;5172664;28;20370;-71
2023/03/30 12:35:48;;;;;;;5.28;0.82;;;;;;;14.70;88.31;99570.50;5169671;28;20451;-72